Time;durP1;ratioP1;P1;durP2;ratioP2;P2;SDS_P1;SDS_P2;PMS_P1;PMS_P2;Temp;Humidity;BMP_temperature;BMP_pressure;BME280_temperature;BME280_humidity;BME280_pressure;Samples;Min_cycle;Max_cycle;Signal;HPM_P1;HPM_P2
2021/09/06 00:00:24;;;;;;;27.23;14.77;;;;;;;;;;5068876;28;20020;-69
2021/09/06 00:02:49;;;;;;;27.80;16.23;;;;;;;;;;5069932;28;20661;-69
2021/09/06 00:05:14;;;;;;;24.90;15.13;;;;;;;;;;5070054;28;20031;-69
2021/09/06 00:07:41;;;;;;;27.43;15.97;;;;;;;;;;5070051;28;20341;-69
2021/09/06 00:10:30;;;;;;;23.67;14.52;;;;;;;;;;5069913;28;20258;-69
2021/09/06 00:12:55;;;;;;;27.90;14.75;;;;;;;;;;5062164;28;20032;-68
2021/09/06 00:15:21;;;;;;;24.50;15.50;;;;;;;;;;5069173;28;20024;-69
2021/09/06 00:17:46;;;;;;;28.05;15.48;;;;;;;;;;5070079;28;20427;-68
2021/09/06 00:20:11;;;;;;;31.17;15.45;;;;;;;;;;5069260;28;20025;-68
2021/09/06 00:22:37;;;;;;;29.95;17.30;;;;;;;;;;5065113;28;20066;-69
2021/09/06 00:25:02;;;;;;;26.33;15.75;;;;;;;;;;5059845;28;20020;-70
2021/09/06 00:27:27;;;;;;;29.13;16.08;;;;;;;;;;5066844;28;20024;-70
2021/09/06 00:29:52;;;;;;;29.50;16.17;;;;;;;;;;5067804;28;20052;-70
2021/09/06 00:32:17;;;;;;;30.40;16.27;;;;;;;;;;5067369;28;20267;-70
2021/09/06 00:34:43;;;;;;;27.17;15.53;;;;;;;;;;5059899;28;20755;-70
2021/09/06 00:37:08;;;;;;;29.98;16.58;;;;;;;;;;5066559;28;20283;-70
2021/09/06 00:39:33;;;;;;;32.07;17.10;;;;;;;;;;5067659;28;20077;-70
2021/09/06 00:41:58;;;;;;;34.80;16.53;;;;;;;;;;5066659;28;20295;-70
2021/09/06 00:44:23;;;;;;;30.33;16.43;;;;;;;;;;5067344;28;20758;-70
2021/09/06 00:46:49;;;;;;;26.40;15.60;;;;;;;;;;5067929;28;20267;-70
2021/09/06 00:49:15;;;;;;;29.50;17.33;;;;;;;;;;5067926;28;20727;-70
2021/09/06 00:51:40;;;;;;;29.75;16.27;;;;;;;;;;5068862;28;20020;-70
2021/09/06 00:54:06;;;;;;;32.70;16.37;;;;;;;;;;5066571;28;20391;-69
2021/09/06 00:56:31;;;;;;;28.67;16.27;;;;;;;;;;5068986;28;20266;-69
2021/09/06 00:58:56;;;;;;;34.97;16.40;;;;;;;;;;5069547;28;20355;-69
2021/09/06 01:01:21;;;;;;;26.98;16.05;;;;;;;;;;5069458;28;20052;-69
2021/09/06 01:03:47;;;;;;;34.85;15.82;;;;;;;;;;5068763;28;20099;-69
2021/09/06 01:06:12;;;;;;;26.33;16.77;;;;;;;;;;5069562;28;20074;-69
2021/09/06 01:08:37;;;;;;;28.02;15.55;;;;;;;;;;5068932;28;20279;-69
2021/09/06 01:11:02;;;;;;;29.38;15.13;;;;;;;;;;5069142;28;20256;-67
2021/09/06 01:13:27;;;;;;;28.80;16.50;;;;;;;;;;5068044;28;20031;-68
2021/09/06 01:15:53;;;;;;;30.20;16.33;;;;;;;;;;5072167;28;20316;-68
2021/09/06 01:18:18;;;;;;;31.07;16.50;;;;;;;;;;5072823;28;20021;-68
2021/09/06 01:20:43;;;;;;;29.30;15.85;;;;;;;;;;5072576;28;20465;-68
2021/09/06 01:23:09;;;;;;;30.45;16.98;;;;;;;;;;5072032;28;20024;-68
2021/09/06 01:25:35;;;;;;;31.00;15.75;;;;;;;;;;5072703;28;20468;-68
2021/09/06 01:28:00;;;;;;;30.17;16.70;;;;;;;;;;5072873;28;20024;-68
2021/09/06 01:30:25;;;;;;;29.17;16.03;;;;;;;;;;5072394;28;20016;-68
2021/09/06 01:32:50;;;;;;;27.10;15.93;;;;;;;;;;5073452;28;20263;-68
2021/09/06 01:35:15;;;;;;;28.23;16.23;;;;;;;;;;5073089;28;20089;-68
2021/09/06 01:37:41;;;;;;;31.43;17.33;;;;;;;;;;5072485;28;20021;-69
2021/09/06 01:40:06;;;;;;;30.10;16.65;;;;;;;;;;5073076;28;20804;-70
2021/09/06 01:42:31;;;;;;;27.33;15.55;;;;;;;;;;5072392;28;20020;-70
2021/09/06 01:44:57;;;;;;;30.17;16.77;;;;;;;;;;5073124;28;20038;-69
2021/09/06 01:47:22;;;;;;;29.90;16.92;;;;;;;;;;5073013;28;20115;-69
2021/09/06 01:49:47;;;;;;;24.23;15.30;;;;;;;;;;5072646;28;20099;-68
2021/09/06 01:52:12;;;;;;;31.53;16.90;;;;;;;;;;5072211;28;20611;-68
2021/09/06 01:54:37;;;;;;;30.95;16.33;;;;;;;;;;5072420;28;20270;-69
2021/09/06 01:57:03;;;;;;;29.40;16.50;;;;;;;;;;5071743;28;20469;-69
2021/09/06 01:59:28;;;;;;;31.88;16.45;;;;;;;;;;5072121;28;20297;-70
2021/09/06 02:01:53;;;;;;;29.17;16.17;;;;;;;;;;5072252;28;20150;-69
2021/09/06 02:04:18;;;;;;;35.10;18.17;;;;;;;;;;5072252;28;20278;-69
2021/09/06 02:06:43;;;;;;;26.63;16.27;;;;;;;;;;5072209;28;20627;-69
2021/09/06 02:09:08;;;;;;;29.40;16.98;;;;;;;;;;5072110;28;20369;-69
2021/09/06 02:11:34;;;;;;;29.88;16.17;;;;;;;;;;5072492;28;20016;-69
2021/09/06 02:13:59;;;;;;;29.20;16.27;;;;;;;;;;5072220;28;20468;-69
2021/09/06 02:16:24;;;;;;;31.23;17.17;;;;;;;;;;5070825;28;20267;-68
2021/09/06 02:18:50;;;;;;;38.22;16.48;;;;;;;;;;5072412;28;20025;-69
2021/09/06 02:21:16;;;;;;;32.92;17.27;;;;;;;;;;5071007;28;20070;-68
2021/09/06 02:23:41;;;;;;;32.60;16.67;;;;;;;;;;5069755;28;20016;-69
2021/09/06 02:26:06;;;;;;;29.93;17.30;;;;;;;;;;5071652;28;20294;-69
2021/09/06 02:28:31;;;;;;;27.93;16.87;;;;;;;;;;5071481;28;20279;-68
2021/09/06 02:30:56;;;;;;;33.10;16.48;;;;;;;;;;5071559;28;20270;-69
2021/09/06 02:33:22;;;;;;;28.00;16.58;;;;;;;;;;5071028;28;20020;-68
2021/09/06 02:35:47;;;;;;;29.50;17.30;;;;;;;;;;5072330;28;20029;-68
2021/09/06 02:38:12;;;;;;;29.10;17.57;;;;;;;;;;5071549;28;20024;-68
2021/09/06 02:40:37;;;;;;;33.60;17.52;;;;;;;;;;5071819;28;20298;-68
2021/09/06 02:43:02;;;;;;;31.97;16.57;;;;;;;;;;5065882;28;20020;-69
2021/09/06 02:45:28;;;;;;;30.15;16.48;;;;;;;;;;5071500;28;20775;-69
2021/09/06 02:47:53;;;;;;;33.38;16.30;;;;;;;;;;5071244;28;20074;-68
2021/09/06 02:50:18;;;;;;;33.70;18.40;;;;;;;;;;5071751;28;20017;-69
2021/09/06 02:52:43;;;;;;;30.95;16.25;;;;;;;;;;5071120;28;20323;-68
2021/09/06 02:55:09;;;;;;;31.33;17.27;;;;;;;;;;5066083;28;20023;-69
2021/09/06 02:57:34;;;;;;;39.30;18.05;;;;;;;;;;5071401;28;20013;-69
2021/09/06 02:59:59;;;;;;;30.98;17.30;;;;;;;;;;5070840;28;20012;-69
2021/09/06 03:02:25;;;;;;;34.50;19.03;;;;;;;;;;5070796;28;20020;-69
2021/09/06 03:04:51;;;;;;;36.22;17.88;;;;;;;;;;5071195;28;20266;-69
2021/09/06 03:07:16;;;;;;;30.70;16.83;;;;;;;;;;5070403;28;20469;-69
2021/09/06 03:09:41;;;;;;;27.83;15.90;;;;;;;;;;5070157;28;20290;-69
2021/09/06 03:12:06;;;;;;;30.98;16.55;;;;;;;;;;5070352;28;20314;-69
2021/09/06 03:14:32;;;;;;;28.40;16.85;;;;;;;;;;5070363;28;20384;-69
2021/09/06 03:16:57;;;;;;;29.05;17.23;;;;;;;;;;5070826;28;20020;-69
2021/09/06 03:19:22;;;;;;;29.13;16.33;;;;;;;;;;5071161;28;20103;-69
2021/09/06 03:21:47;;;;;;;30.87;15.87;;;;;;;;;;5070393;28;20438;-68
2021/09/06 03:24:13;;;;;;;31.08;16.58;;;;;;;;;;5070035;28;20275;-69
2021/09/06 03:26:38;;;;;;;30.03;17.47;;;;;;;;;;5070544;28;20030;-68
2021/09/06 03:29:03;;;;;;;32.75;17.80;;;;;;;;;;5070685;28;20758;-67
2021/09/06 03:31:31;;;;;;;31.92;17.95;;;;;;;;;;5069814;28;20605;-68
2021/09/06 03:33:56;;;;;;;30.08;16.60;;;;;;;;;;5055084;28;20028;-68
2021/09/06 03:36:22;;;;;;;33.60;17.30;;;;;;;;;;5070790;28;20092;-68
2021/09/06 03:38:48;;;;;;;31.25;17.35;;;;;;;;;;5069618;28;20647;-68
2021/09/06 03:41:13;;;;;;;32.40;17.60;;;;;;;;;;5070225;28;20028;-69
2021/09/06 03:43:38;;;;;;;31.63;17.57;;;;;;;;;;5069527;28;20028;-68
2021/09/06 03:46:04;;;;;;;35.40;17.15;;;;;;;;;;5070669;28;20627;-67
2021/09/06 03:48:29;;;;;;;30.50;16.93;;;;;;;;;;5070004;28;20028;-69
2021/09/06 03:50:54;;;;;;;34.13;18.40;;;;;;;;;;5070538;28;20320;-68
2021/09/06 03:53:19;;;;;;;34.83;17.00;;;;;;;;;;5068493;28;20267;-68
2021/09/06 03:55:44;;;;;;;33.17;18.23;;;;;;;;;;5067872;28;20258;-68
2021/09/06 03:58:09;;;;;;;30.23;16.98;;;;;;;;;;5070444;28;20370;-69
2021/09/06 04:00:35;;;;;;;42.93;17.47;;;;;;;;;;5070292;28;20130;-68
2021/09/06 04:03:00;;;;;;;42.63;17.43;;;;;;;;;;5070029;28;20703;-69
2021/09/06 04:05:25;;;;;;;34.93;18.07;;;;;;;;;;5070263;28;20274;-69
2021/09/06 04:07:50;;;;;;;35.42;18.55;;;;;;;;;;5069228;28;20302;-69
2021/09/06 04:10:15;;;;;;;33.53;18.92;;;;;;;;;;5070148;28;20020;-69
2021/09/06 04:12:41;;;;;;;32.92;18.58;;;;;;;;;;5069689;28;20496;-69
2021/09/06 04:15:08;;;;;;;37.10;17.23;;;;;;;;;;5069248;28;20028;-69
2021/09/06 04:17:33;;;;;;;40.97;18.15;;;;;;;;;;5070385;28;20023;-69
2021/09/06 04:19:59;;;;;;;38.13;19.42;;;;;;;;;;5070331;28;20016;-69
2021/09/06 04:22:24;;;;;;;34.33;17.70;;;;;;;;;;5069491;28;20240;-69
2021/09/06 04:24:49;;;;;;;38.13;18.65;;;;;;;;;;5069706;28;20075;-69
2021/09/06 04:27:14;;;;;;;34.03;16.97;;;;;;;;;;5069539;28;20117;-69
2021/09/06 04:29:39;;;;;;;29.70;17.73;;;;;;;;;;5070339;28;20291;-69
2021/09/06 04:32:06;;;;;;;32.83;18.60;;;;;;;;;;5069041;28;20263;-69
2021/09/06 04:34:31;;;;;;;39.30;18.80;;;;;;;;;;5069754;28;20020;-69
2021/09/06 04:36:56;;;;;;;31.08;17.80;;;;;;;;;;5069976;28;20540;-69
2021/09/06 04:39:21;;;;;;;31.10;17.45;;;;;;;;;;5069687;28;20551;-69
2021/09/06 04:41:46;;;;;;;37.63;17.77;;;;;;;;;;5069111;28;20040;-69
2021/09/06 04:44:11;;;;;;;36.50;19.45;;;;;;;;;;5069580;28;20275;-69
2021/09/06 04:46:37;;;;;;;32.53;17.97;;;;;;;;;;5069865;28;20024;-69
2021/09/06 04:49:02;;;;;;;33.45;17.42;;;;;;;;;;5069595;28;20371;-69
2021/09/06 04:51:27;;;;;;;31.88;16.58;;;;;;;;;;5073134;28;20021;-69
2021/09/06 04:53:53;;;;;;;32.25;16.55;;;;;;;;;;5072820;28;20021;-69
2021/09/06 04:56:19;;;;;;;38.57;19.43;;;;;;;;;;5073459;28;20059;-69
2021/09/06 04:58:45;;;;;;;35.70;18.35;;;;;;;;;;5073659;28;20642;-69
2021/09/06 05:01:10;;;;;;;37.90;19.13;;;;;;;;;;5073624;28;20024;-69
2021/09/06 05:03:35;;;;;;;30.25;16.30;;;;;;;;;;5072587;28;20353;-69
2021/09/06 05:06:00;;;;;;;31.65;18.38;;;;;;;;;;5071668;28;20024;-69
2021/09/06 05:08:26;;;;;;;35.73;17.43;;;;;;;;;;5072569;28;20481;-70
2021/09/06 05:10:52;;;;;;;30.80;18.42;;;;;;;;;;5072632;28;20354;-70
2021/09/06 05:13:17;;;;;;;34.17;18.70;;;;;;;;;;5073343;28;20089;-68
2021/09/06 05:15:42;;;;;;;31.80;18.10;;;;;;;;;;5073018;28;20020;-68
2021/09/06 05:18:08;;;;;;;31.15;17.15;;;;;;;;;;5073190;28;20424;-68
2021/09/06 05:20:33;;;;;;;31.00;17.10;;;;;;;;;;5072124;28;20012;-68
2021/09/06 05:22:58;;;;;;;32.47;17.52;;;;;;;;;;5072099;28;20107;-69
2021/09/06 05:25:23;;;;;;;32.33;18.60;;;;;;;;;;5072505;28;20020;-69
2021/09/06 05:27:49;;;;;;;32.05;18.55;;;;;;;;;;5072672;28;20774;-69
2021/09/06 05:30:14;;;;;;;30.48;17.33;;;;;;;;;;5072947;28;20025;-69
2021/09/06 05:32:39;;;;;;;32.80;17.58;;;;;;;;;;5070520;28;20078;-68
2021/09/06 05:35:05;;;;;;;33.90;16.38;;;;;;;;;;5073167;28;20048;-68
2021/09/06 05:37:30;;;;;;;36.80;17.35;;;;;;;;;;5072405;28;20031;-69
2021/09/06 05:39:55;;;;;;;31.77;17.47;;;;;;;;;;5072405;28;20469;-69
2021/09/06 05:42:20;;;;;;;38.97;17.53;;;;;;;;;;5072025;28;20285;-70
2021/09/06 05:44:50;;;;;;;30.38;16.67;;;;;;;;;;5071194;28;20274;-69
2021/09/06 05:47:16;;;;;;;35.05;18.25;;;;;;;;;;5070312;28;20024;-69
2021/09/06 05:49:41;;;;;;;34.33;18.35;;;;;;;;;;5060787;28;20066;-69
2021/09/06 05:52:06;;;;;;;31.63;17.13;;;;;;;;;;5068528;28;20403;-69
2021/09/06 05:54:31;;;;;;;30.05;17.17;;;;;;;;;;5057735;28;20277;-69
2021/09/06 05:56:56;;;;;;;33.83;18.30;;;;;;;;;;5065456;28;20027;-69
2021/09/06 05:59:22;;;;;;;33.50;18.20;;;;;;;;;;5066705;28;20281;-69
2021/09/06 06:01:47;;;;;;;36.70;18.48;;;;;;;;;;5066457;28;20766;-69
2021/09/06 06:04:12;;;;;;;34.28;18.38;;;;;;;;;;5067616;28;20500;-69
2021/09/06 06:06:37;;;;;;;33.47;17.00;;;;;;;;;;5064768;28;20104;-68
2021/09/06 06:09:04;;;;;;;34.50;18.77;;;;;;;;;;5060731;28;20275;-69
2021/09/06 06:11:29;;;;;;;34.67;18.70;;;;;;;;;;5066348;28;20016;-69
2021/09/06 06:13:54;;;;;;;34.40;18.17;;;;;;;;;;5068920;28;21419;-69
2021/09/06 06:16:20;;;;;;;33.37;18.70;;;;;;;;;;5070124;28;20282;-69
2021/09/06 06:18:45;;;;;;;32.63;18.37;;;;;;;;;;5071070;28;20369;-68
2021/09/06 06:21:10;;;;;;;35.72;18.83;;;;;;;;;;5071773;28;20604;-68
2021/09/06 06:23:35;;;;;;;32.70;17.40;;;;;;;;;;5071634;28;20035;-69
2021/09/06 06:26:00;;;;;;;30.77;17.60;;;;;;;;;;5071666;28;20266;-68
2021/09/06 06:28:25;;;;;;;37.47;18.27;;;;;;;;;;5071494;28;20372;-67
2021/09/06 06:30:51;;;;;;;34.93;18.13;;;;;;;;;;5071127;28;20020;-68
2021/09/06 06:33:16;;;;;;;32.50;16.77;;;;;;;;;;5071107;28;20419;-67
2021/09/06 06:35:41;;;;;;;33.53;16.85;;;;;;;;;;5071115;28;20635;-68
2021/09/06 06:38:07;;;;;;;36.63;18.38;;;;;;;;;;5070882;28;20468;-68
2021/09/06 06:40:32;;;;;;;30.30;17.48;;;;;;;;;;5070453;28;20020;-69
2021/09/06 06:42:58;;;;;;;31.90;16.23;;;;;;;;;;5071694;28;20097;-69
2021/09/06 06:45:23;;;;;;;35.30;16.85;;;;;;;;;;5071601;28;20029;-69
2021/09/06 06:47:48;;;;;;;29.33;16.80;;;;;;;;;;5071471;28;20036;-69
2021/09/06 06:50:14;;;;;;;32.03;16.95;;;;;;;;;;5071548;28;20330;-69
2021/09/06 06:52:39;;;;;;;29.70;16.83;;;;;;;;;;5071156;28;20052;-70
2021/09/06 06:55:05;;;;;;;26.08;16.55;;;;;;;;;;5071405;28;20056;-69
2021/09/06 06:57:30;;;;;;;29.08;17.80;;;;;;;;;;5071516;28;20024;-69
2021/09/06 06:59:55;;;;;;;29.50;17.27;;;;;;;;;;5071391;28;20021;-69
2021/09/06 07:02:21;;;;;;;26.93;16.33;;;;;;;;;;5070952;28;20751;-69
2021/09/06 07:04:46;;;;;;;25.77;15.70;;;;;;;;;;5071066;28;20111;-69
2021/09/06 07:07:11;;;;;;;26.13;16.90;;;;;;;;;;5070822;28;20488;-69
2021/09/06 07:09:36;;;;;;;27.77;16.07;;;;;;;;;;5070725;28;20060;-69
2021/09/06 07:12:02;;;;;;;23.53;16.77;;;;;;;;;;5070067;28;20279;-67
2021/09/06 07:14:27;;;;;;;25.48;16.85;;;;;;;;;;5069174;28;20017;-67
2021/09/06 07:16:52;;;;;;;26.87;18.37;;;;;;;;;;5068647;28;20039;-67
2021/09/06 07:19:17;;;;;;;25.97;16.47;;;;;;;;;;5069972;28;20258;-67
2021/09/06 07:21:42;;;;;;;23.83;16.33;;;;;;;;;;5070281;28;20115;-67
2021/09/06 07:24:08;;;;;;;24.00;16.87;;;;;;;;;;5068798;28;20024;-70
2021/09/06 07:26:33;;;;;;;23.50;15.77;;;;;;;;;;5069255;28;20054;-70
2021/09/06 07:28:59;;;;;;;21.33;15.13;;;;;;;;;;5069974;28;20025;-70
2021/09/06 07:31:24;;;;;;;21.60;16.55;;;;;;;;;;5068343;28;20493;-69
2021/09/06 07:33:49;;;;;;;25.13;15.23;;;;;;;;;;5069458;28;20103;-69
2021/09/06 07:36:14;;;;;;;23.63;16.37;;;;;;;;;;5069643;28;20213;-70
2021/09/06 07:38:40;;;;;;;21.40;15.33;;;;;;;;;;5069829;28;20275;-70
2021/09/06 07:41:05;;;;;;;22.73;16.43;;;;;;;;;;5069653;28;20029;-70
2021/09/06 07:43:30;;;;;;;23.80;15.93;;;;;;;;;;5069363;28;20106;-70
2021/09/06 07:45:56;;;;;;;21.80;16.10;;;;;;;;;;5069521;28;20362;-68
2021/09/06 07:48:21;;;;;;;21.52;15.95;;;;;;;;;;5068965;28;20158;-69
2021/09/06 07:50:48;;;;;;;23.48;16.50;;;;;;;;;;5069345;28;20032;-69
2021/09/06 07:53:13;;;;;;;23.17;16.52;;;;;;;;;;5069192;28;20100;-69
2021/09/06 07:55:38;;;;;;;21.63;15.60;;;;;;;;;;5069899;28;20103;-68
2021/09/06 07:58:03;;;;;;;22.83;15.83;;;;;;;;;;5069144;28;20020;-68
2021/09/06 08:00:29;;;;;;;27.10;17.23;;;;;;;;;;5069523;28;20093;-68
2021/09/06 08:02:54;;;;;;;24.03;16.27;;;;;;;;;;5069950;28;20469;-68
2021/09/06 08:05:23;;;;;;;21.88;16.38;;;;;;;;;;5068841;28;20832;-68
2021/09/06 08:07:49;;;;;;;22.27;15.88;;;;;;;;;;5070241;28;20051;-68
2021/09/06 08:10:14;;;;;;;20.35;15.07;;;;;;;;;;5070042;28;20059;-68
2021/09/06 08:12:40;;;;;;;20.60;15.85;;;;;;;;;;5069137;28;20046;-68
2021/09/06 08:15:06;;;;;;;22.30;16.60;;;;;;;;;;5068459;28;20480;-68
2021/09/06 08:17:33;;;;;;;24.75;16.48;;;;;;;;;;5066664;28;20024;-67
2021/09/06 08:19:59;;;;;;;28.60;16.65;;;;;;;;;;5067621;28;20017;-68
2021/09/06 08:22:24;;;;;;;23.13;16.23;;;;;;;;;;5068983;28;20039;-69
2021/09/06 08:24:49;;;;;;;21.60;16.00;;;;;;;;;;5069223;28;20283;-69
2021/09/06 08:27:14;;;;;;;26.17;15.33;;;;;;;;;;5069367;28;20025;-68
2021/09/06 08:29:39;;;;;;;20.00;16.00;;;;;;;;;;5068259;28;20032;-70
2021/09/06 08:32:05;;;;;;;25.43;17.77;;;;;;;;;;5068866;28;20009;-70
2021/09/06 08:34:30;;;;;;;25.02;16.85;;;;;;;;;;5069278;28;20021;-70
2021/09/06 08:36:55;;;;;;;22.10;16.00;;;;;;;;;;5067976;28;20047;-70
2021/09/06 08:39:21;;;;;;;26.30;17.50;;;;;;;;;;5069746;28;20107;-70
2021/09/06 08:41:47;;;;;;;23.47;15.93;;;;;;;;;;5068786;28;20036;-70
2021/09/06 08:44:12;;;;;;;22.80;16.08;;;;;;;;;;5069569;28;20020;-70
2021/09/06 08:46:37;;;;;;;32.60;16.17;;;;;;;;;;5069801;28;20070;-70
2021/09/06 08:49:02;;;;;;;29.47;17.50;;;;;;;;;;5068424;28;20082;-70
2021/09/06 08:51:28;;;;;;;24.37;17.10;;;;;;;;;;5070498;28;20019;-70
2021/09/06 08:53:53;;;;;;;26.02;15.90;;;;;;;;;;5069041;28;20366;-69
2021/09/06 08:56:21;;;;;;;25.33;15.93;;;;;;;;;;5069874;28;20609;-70
2021/09/06 08:58:46;;;;;;;23.60;15.63;;;;;;;;;;5069494;28;20539;-70
2021/09/06 09:01:11;;;;;;;22.93;16.17;;;;;;;;;;5069269;28;20099;-69
2021/09/06 09:03:36;;;;;;;25.98;16.92;;;;;;;;;;5068984;28;20078;-70
2021/09/06 09:06:02;;;;;;;23.30;16.27;;;;;;;;;;5067080;28;20020;-70
2021/09/06 09:08:28;;;;;;;23.55;16.40;;;;;;;;;;5062869;28;20060;-70
2021/09/06 09:11:00;;;;;;;21.77;15.77;;;;;;;;;;5069378;28;20102;-70
2021/09/06 09:13:30;;;;;;;22.92;15.60;;;;;;;;;;5069270;28;20117;-70
2021/09/06 09:15:55;;;;;;;;;;;;;;;;;;5069844;28;20107;-70
2021/09/06 09:18:24;;;;;;;29.48;16.58;;;;;;;;;;5069293;28;19999;-70
2021/09/06 09:20:56;;;;;;;25.85;16.67;;;;;;;;;;5068593;28;20044;-70
2021/09/06 09:23:21;;;;;;;24.67;17.33;;;;;;;;;;5068977;28;20035;-69
2021/09/06 09:25:47;;;;;;;26.50;17.17;;;;;;;;;;5069750;28;20028;-69
2021/09/06 09:28:12;;;;;;;24.43;16.10;;;;;;;;;;5068813;28;20279;-69
2021/09/06 09:30:39;;;;;;;24.70;16.33;;;;;;;;;;5068611;28;20098;-70
2021/09/06 09:33:04;;;;;;;46.85;20.40;;;;;;;;;;5068266;28;20096;-70
2021/09/06 09:35:30;;;;;;;26.48;16.38;;;;;;;;;;5069344;28;20157;-70
2021/09/06 09:38:13;;;;;;;24.60;17.27;;;;;;;;;;5073345;28;20032;-70
2021/09/06 09:40:40;;;;;;;26.90;16.80;;;;;;;;;;5073137;28;20021;-70
2021/09/06 09:43:06;;;;;;;23.02;17.52;;;;;;;;;;5072245;28;20027;-70
2021/09/06 09:45:32;;;;;;;30.50;16.13;;;;;;;;;;5072408;28;20099;-69
2021/09/06 09:47:58;;;;;;;27.13;16.30;;;;;;;;;;5072825;28;20461;-69
2021/09/06 09:50:24;;;;;;;26.98;15.20;;;;;;;;;;5072000;28;20021;-69
2021/09/06 09:52:52;;;;;;;22.90;14.70;;;;;;;;;;5072569;28;20027;-69
2021/09/06 09:55:18;;;;;;;24.23;15.40;;;;;;;;;;5072582;28;20017;-70
2021/09/06 09:57:43;;;;;;;26.33;15.63;;;;;;;;;;5072952;28;20016;-70
2021/09/06 10:00:09;;;;;;;24.00;15.87;;;;;;;;;;5071820;28;20017;-70
2021/09/06 10:02:35;;;;;;;23.63;14.85;;;;;;;;;;5071831;28;20025;-70
2021/09/06 10:05:02;;;;;;;24.45;15.05;;;;;;;;;;5072599;28;20012;-72
2021/09/06 10:07:31;;;;;;;21.95;16.00;;;;;;;;;;5071816;28;20028;-69
2021/09/06 10:09:56;;;;;;;25.75;15.10;;;;;;;;;;5072480;28;20448;-69
2021/09/06 10:12:22;;;;;;;22.00;14.60;;;;;;;;;;5072141;28;20020;-70
2021/09/06 10:14:49;;;;;;;21.52;14.75;;;;;;;;;;5072048;28;20353;-70
2021/09/06 10:17:14;;;;;;;24.08;15.95;;;;;;;;;;5071836;28;20099;-69
2021/09/06 10:19:41;;;;;;;23.25;14.43;;;;;;;;;;5072464;28;20088;-70
2021/09/06 10:22:07;;;;;;;23.38;15.40;;;;;;;;;;5068800;28;20043;-71
2021/09/06 10:24:32;;;;;;;21.95;14.32;;;;;;;;;;5063069;28;20082;-71
2021/09/06 10:27:06;;;;;;;31.33;15.90;;;;;;;;;;5071282;28;20055;-71
2021/09/06 10:29:32;;;;;;;25.63;15.50;;;;;;;;;;5054556;28;20381;-70
2021/09/06 10:32:01;;;;;;;27.45;16.10;;;;;;;;;;5071649;28;20016;-70
2021/09/06 10:34:29;;;;;;;22.85;15.65;;;;;;;;;;5062891;28;20017;-71
2021/09/06 10:36:58;;;;;;;25.63;16.02;;;;;;;;;;5068787;28;20012;-71
2021/09/06 10:39:23;;;;;;;29.73;15.57;;;;;;;;;;5061254;28;20024;-71
2021/09/06 10:41:49;;;;;;;28.27;16.33;;;;;;;;;;5067397;28;20032;-71
2021/09/06 10:44:15;;;;;;;34.28;15.27;;;;;;;;;;5070499;28;20267;-71
2021/09/06 10:46:51;;;;;;;23.63;14.82;;;;;;;;;;5071669;28;20017;-71
2021/09/06 10:49:21;;;;;;;31.88;17.08;;;;;;;;;;5068431;28;20031;-70
2021/09/06 10:51:46;;;;;;;25.15;16.90;;;;;;;;;;5071350;28;20043;-69
2021/09/06 10:54:12;;;;;;;23.57;14.57;;;;;;;;;;5071194;28;20485;-69
2021/09/06 10:56:37;;;;;;;35.03;17.27;;;;;;;;;;5071509;28;20328;-70
2021/09/06 10:59:02;;;;;;;25.60;15.25;;;;;;;;;;5071326;28;20392;-70
2021/09/06 11:01:29;;;;;;;26.15;17.00;;;;;;;;;;5071720;28;20082;-71
2021/09/06 11:03:55;;;;;;;27.75;16.02;;;;;;;;;;5071671;28;20018;-71
2021/09/06 11:06:21;;;;;;;32.40;16.80;;;;;;;;;;5071349;28;20427;-70
2021/09/06 11:08:46;;;;;;;26.15;17.35;;;;;;;;;;5071517;28;20090;-70
2021/09/06 11:11:11;;;;;;;25.80;17.97;;;;;;;;;;5071335;28;20020;-69
2021/09/06 11:13:37;;;;;;;30.63;16.97;;;;;;;;;;5071409;28;20021;-70
2021/09/06 11:16:04;;;;;;;25.33;16.27;;;;;;;;;;5071243;28;20270;-70
2021/09/06 11:18:31;;;;;;;32.17;17.17;;;;;;;;;;5070886;28;20111;-70
2021/09/06 11:20:56;;;;;;;26.25;16.75;;;;;;;;;;5069603;28;20028;-69
2021/09/06 11:23:29;;;;;;;31.70;17.70;;;;;;;;;;5069545;28;20400;-70
2021/09/06 11:25:54;;;;;;;24.17;16.08;;;;;;;;;;5070893;28;20275;-70
2021/09/06 11:28:19;;;;;;;29.30;17.17;;;;;;;;;;5070896;28;20020;-71
2021/09/06 11:30:45;;;;;;;29.03;17.37;;;;;;;;;;5070741;28;20115;-71
2021/09/06 11:33:11;;;;;;;28.48;16.58;;;;;;;;;;5070414;28;20021;-70
2021/09/06 11:35:39;;;;;;;28.45;16.85;;;;;;;;;;5071140;28;20036;-70
2021/09/06 11:38:05;;;;;;;31.15;15.80;;;;;;;;;;5070245;28;20027;-70
2021/09/06 11:40:31;;;;;;;26.58;16.30;;;;;;;;;;5068022;28;20028;-70
2021/09/06 11:42:57;;;;;;;22.13;13.82;;;;;;;;;;5069520;28;20059;-71
2021/09/06 11:45:23;;;;;;;22.75;14.75;;;;;;;;;;5070146;28;20076;-70
2021/09/06 11:47:48;;;;;;;27.65;14.52;;;;;;;;;;5070053;28;20680;-69
2021/09/06 11:50:15;;;;;;;22.17;13.98;;;;;;;;;;5067549;28;20017;-70
2021/09/06 11:52:41;;;;;;;28.17;15.77;;;;;;;;;;5068483;28;20062;-70
2021/09/06 11:55:17;;;;;;;26.23;13.30;;;;;;;;;;5063874;28;20066;-69
2021/09/06 11:57:43;;;;;;;24.17;14.20;;;;;;;;;;5068709;28;20044;-71
2021/09/06 12:00:08;;;;;;;21.17;11.52;;;;;;;;;;5054404;28;20056;-71
2021/09/06 12:02:34;;;;;;;26.98;13.35;;;;;;;;;;5057373;28;20017;-71
2021/09/06 12:05:04;;;;;;;21.85;12.23;;;;;;;;;;5070290;28;20130;-71
2021/09/06 12:07:29;;;;;;;24.27;12.75;;;;;;;;;;5070019;28;20069;-71
2021/09/06 12:09:54;;;;;;;23.63;14.38;;;;;;;;;;5067366;28;20032;-71
2021/09/06 12:12:21;;;;;;;20.07;13.20;;;;;;;;;;5068907;28;20029;-71
2021/09/06 12:14:47;;;;;;;19.92;12.38;;;;;;;;;;5070444;28;20020;-71
2021/09/06 12:17:12;;;;;;;25.38;13.10;;;;;;;;;;5069892;28;20019;-71
2021/09/06 12:19:45;;;;;;;25.38;13.85;;;;;;;;;;5069706;28;20025;-71
2021/09/06 12:22:12;;;;;;;21.42;13.32;;;;;;;;;;5069120;28;20374;-70
2021/09/06 12:24:37;;;;;;;22.23;14.40;;;;;;;;;;5069821;28;20035;-69
2021/09/06 12:27:09;;;;;;;19.93;12.40;;;;;;;;;;5070596;28;20025;-70
2021/09/06 12:29:34;;;;;;;18.35;11.85;;;;;;;;;;5073836;28;20282;-69
2021/09/06 12:32:00;;;;;;;28.58;16.60;;;;;;;;;;5069977;28;20032;-70
2021/09/06 12:34:25;;;;;;;26.15;15.90;;;;;;;;;;5069613;28;20028;-71
2021/09/06 12:36:53;;;;;;;28.05;16.55;;;;;;;;;;5067020;28;20066;-71
2021/09/06 12:39:18;;;;;;;25.52;13.50;;;;;;;;;;5069519;28;20027;-71
2021/09/06 12:41:43;;;;;;;21.52;13.55;;;;;;;;;;5069480;28;20026;-72
2021/09/06 12:44:08;;;;;;;21.43;12.90;;;;;;;;;;5069613;28;20020;-69
2021/09/06 12:46:33;;;;;;;24.90;12.43;;;;;;;;;;5068670;28;20032;-71
2021/09/06 12:48:59;;;;;;;14.10;8.68;;;;;;;;;;5069732;28;20286;-70
2021/09/06 12:51:24;;;;;;;14.50;8.53;;;;;;;;;;5070045;28;20070;-71
2021/09/06 12:53:49;;;;;;;20.52;9.32;;;;;;;;;;5069417;28;20267;-70
2021/09/06 12:56:15;;;;;;;14.87;9.53;;;;;;;;;;5070102;28;20020;-70
2021/09/06 12:58:40;;;;;;;13.93;9.13;;;;;;;;;;5068587;28;20262;-70
2021/09/06 13:01:06;;;;;;;19.23;8.63;;;;;;;;;;5068741;28;20077;-70
2021/09/06 13:03:31;;;;;;;13.20;6.87;;;;;;;;;;5067688;28;20020;-69
2021/09/06 13:05:56;;;;;;;16.87;8.40;;;;;;;;;;5069309;28;20027;-69
2021/09/06 13:08:22;;;;;;;12.45;6.97;;;;;;;;;;5068849;28;20024;-70
2021/09/06 13:10:50;;;;;;;13.77;8.27;;;;;;;;;;5070605;28;20020;-70
2021/09/06 13:13:15;;;;;;;16.20;8.77;;;;;;;;;;5072654;28;20476;-70
2021/09/06 13:15:40;;;;;;;16.38;9.27;;;;;;;;;;5073394;28;20041;-70
2021/09/06 13:18:05;;;;;;;13.10;7.90;;;;;;;;;;5073448;28;20047;-70
2021/09/06 13:20:31;;;;;;;11.98;7.38;;;;;;;;;;5073102;28;20035;-70
2021/09/06 13:22:56;;;;;;;12.85;7.85;;;;;;;;;;5072955;28;20464;-69
2021/09/06 13:25:21;;;;;;;13.93;8.43;;;;;;;;;;5073267;28;20028;-70
2021/09/06 13:27:46;;;;;;;14.63;9.20;;;;;;;;;;5072981;28;20449;-69
2021/09/06 13:30:14;;;;;;;17.50;9.70;;;;;;;;;;5073046;28;20028;-69
2021/09/06 13:32:39;;;;;;;32.38;11.85;;;;;;;;;;5073128;28;20723;-69
2021/09/06 13:35:05;;;;;;;17.88;10.35;;;;;;;;;;5072911;28;20012;-70
2021/09/06 13:37:30;;;;;;;18.33;11.38;;;;;;;;;;5073296;28;20021;-69
2021/09/06 13:39:55;;;;;;;26.07;12.67;;;;;;;;;;5072846;28;20366;-70
2021/09/06 13:42:20;;;;;;;18.57;11.03;;;;;;;;;;5070892;28;20052;-70
2021/09/06 13:44:45;;;;;;;27.65;12.48;;;;;;;;;;5072911;28;20016;-69
2021/09/06 13:47:10;;;;;;;23.47;13.33;;;;;;;;;;5072803;28;20063;-69
2021/09/06 13:49:36;;;;;;;20.83;12.52;;;;;;;;;;5072869;28;20020;-70
2021/09/06 13:52:01;;;;;;;22.03;11.97;;;;;;;;;;5072586;28;20048;-68
2021/09/06 13:54:26;;;;;;;25.05;13.00;;;;;;;;;;5072574;28;20330;-69
2021/09/06 13:56:51;;;;;;;25.30;12.93;;;;;;;;;;5072523;28;20024;-70
2021/09/06 13:59:18;;;;;;;23.17;11.70;;;;;;;;;;5072937;28;20027;-69
2021/09/06 14:01:43;;;;;;;21.80;12.18;;;;;;;;;;5072567;28;20263;-69
2021/09/06 14:04:09;;;;;;;25.33;12.45;;;;;;;;;;5072345;28;20025;-69
2021/09/06 14:06:34;;;;;;;21.00;12.43;;;;;;;;;;5071843;28;20120;-70
2021/09/06 14:09:00;;;;;;;21.08;12.40;;;;;;;;;;5072323;28;20028;-71